Portada
METAR-TAF:

METAR-TAF

Aeroports :

Grozni, Rússia

latitud: 43-23-18N, longitud: 045-41-59E, altitud: 167 m

Observació

L'informe es va fer fa 36 minuts, a les 19:00 UTC
Vent 2 kt amb direcció variable
Temperatura 11°C
Humitat 82%
Pressió 1002 hPa
Visibilitat 10 km o més
Núvols disperses a una alçada de 5000 ft, Cumulonimbus.
Cel ennuvolat

METAR: URMG 291900Z VRB01MPS 9999 SCT050CB BKN/// 11/08 Q1002 R26/090070 NOSIG RMK QFE737/0983

Hora: 22:36 (19:36 UTC)

Pronòstic

L'informe es va fer fa 2 hores i 36 minuts, a les 17:00 UTC
Pronòstic vàlid del 29 a les 18 UTC al 30 a les 03 UTC
Vent 6 kt del Est amb ràfegues de 16 kt
Visibilitat 10 km o més
Cel ennuvolat a una alçada de 2000 ft
Temporalment
l' 29 a les 18 UTC al 30 a les 03 UTC
Vent 2 kt amb direcció variable

TAF: URMG 291700Z 2918/3003 10003G08MPS 9999 BKN020 TEMPO 2918/3003 VRB01MPS

Observacions i pronòstics meteorològics de més de 4000 aeroports (METAR i TAF).

Les estacions disponibles són els punts grocs i vermells al mapa.

Posi el ratolí al punt desitjat per veure el nom de l'estació.

Feu clic per veure les observacions i els pronòstics meteorològics.

Per canviar el mapa: feu clic els botons verds amb una creu de color negre per apropar; al botó verd amb un guió per allunyar la imatge; o en les fletxes verdes per a mapes adjacents.


METAR-TAF: